Greeley West High School, Colorado
Current Conditions -  °F | °C
As of 8:35 PM on Sunday 21 Dec 2014 (Local Time) from KGXY Reporting Station
Scattered Clouds Scattered Clouds  
Wind Chill: 35°   Ceiling: Unl
Heat Index: 43°   Visibility: 10mi
Dew Point: 28°   Wind: 18mph
Humidity: 57%   Direction: 360°N
Pressure: 29.57"   Gusts: NA
Location:  40.41412°N, 104.7064°W
Report Text: KGXY 220335Z AUTO 36016KT 10SM SCT120 06/M02 A2957 RMK AO1
Loading
Personal Weather Stations






























Interactive Weather Map New forecast layout! Learn more

10-Day Weather Forecast

Advertisements
Track Severe Weather on mobile